sensor_id;sensor_type;location;lat;lon;timestamp;pressure;altitude;pressure_sealevel;temperature;humidity
40908;BME280;51055;59.436;24.778;2023-10-09T00:00:14;101081.31;;;6.67;65.45
40908;BME280;51055;59.436;24.778;2023-10-09T00:03:01;101085.78;;;6.65;65.27
40908;BME280;51055;59.436;24.778;2023-10-09T00:05:33;101079.66;;;6.64;64.22
40908;BME280;51055;59.436;24.778;2023-10-09T00:08:16;101081.38;;;6.65;64.35
40908;BME280;51055;59.436;24.778;2023-10-09T00:10:49;101066.41;;;6.66;64.34
40908;BME280;51055;59.436;24.778;2023-10-09T00:13:37;101069.97;;;6.65;64.94
40908;BME280;51055;59.436;24.778;2023-10-09T00:16:05;101076.28;;;6.62;65.04
40908;BME280;51055;59.436;24.778;2023-10-09T00:18:42;101067.44;;;6.63;63.27
40908;BME280;51055;59.436;24.778;2023-10-09T00:21:17;101066.50;;;6.64;63.12
40908;BME280;51055;59.436;24.778;2023-10-09T00:23:49;101062.19;;;6.63;62.97
40908;BME280;51055;59.436;24.778;2023-10-09T00:26:26;101068.31;;;6.64;63.56
40908;BME280;51055;59.436;24.778;2023-10-09T00:28:56;101063.78;;;6.66;64.99
40908;BME280;51055;59.436;24.778;2023-10-09T00:31:24;101063.78;;;6.66;64.89
40908;BME280;51055;59.436;24.778;2023-10-09T00:34:01;101061.22;;;6.64;66.07
40908;BME280;51055;59.436;24.778;2023-10-09T00:36:30;101058.44;;;6.67;66.63
40908;BME280;51055;59.436;24.778;2023-10-09T00:39:00;101053.72;;;6.72;67.28
40908;BME280;51055;59.436;24.778;2023-10-09T00:41:39;101053.66;;;6.74;68.00
40908;BME280;51055;59.436;24.778;2023-10-09T00:44:09;101052.81;;;6.73;68.08
40908;BME280;51055;59.436;24.778;2023-10-09T00:46:39;101047.88;;;6.67;67.87
40908;BME280;51055;59.436;24.778;2023-10-09T00:49:10;101047.13;;;6.65;67.91
40908;BME280;51055;59.436;24.778;2023-10-09T00:51:41;101044.47;;;6.65;68.44
40908;BME280;51055;59.436;24.778;2023-10-09T00:54:24;101039.19;;;6.65;68.21
40908;BME280;51055;59.436;24.778;2023-10-09T00:56:56;101040.13;;;6.64;68.66
40908;BME280;51055;59.436;24.778;2023-10-09T00:59:34;101038.16;;;6.68;69.46
40908;BME280;51055;59.436;24.778;2023-10-09T01:02:06;101033.50;;;6.73;69.61
40908;BME280;51055;59.436;24.778;2023-10-09T01:04:34;101035.94;;;6.76;69.12
40908;BME280;51055;59.436;24.778;2023-10-09T01:07:08;101031.34;;;6.79;68.18
40908;BME280;51055;59.436;24.778;2023-10-09T01:09:53;101042.56;;;6.83;67.71
40908;BME280;51055;59.436;24.778;2023-10-09T01:12:22;101037.97;;;6.87;68.60
40908;BME280;51055;59.436;24.778;2023-10-09T01:14:50;101032.59;;;6.88;68.96
40908;BME280;51055;59.436;24.778;2023-10-09T01:17:23;101029.09;;;6.88;69.45
40908;BME280;51055;59.436;24.778;2023-10-09T01:20:04;101034.28;;;6.89;70.00
40908;BME280;51055;59.436;24.778;2023-10-09T01:22:33;101024.59;;;6.90;70.54
40908;BME280;51055;59.436;24.778;2023-10-09T01:25:00;101027.31;;;6.88;70.81
40908;BME280;51055;59.436;24.778;2023-10-09T01:27:30;101017.72;;;6.87;71.20
40908;BME280;51055;59.436;24.778;2023-10-09T01:30:00;101021.09;;;6.89;72.57
40908;BME280;51055;59.436;24.778;2023-10-09T01:32:28;101020.25;;;6.89;73.10
40908;BME280;51055;59.436;24.778;2023-10-09T01:34:57;101015.09;;;6.87;74.22
40908;BME280;51055;59.436;24.778;2023-10-09T01:37:25;101011.50;;;6.88;75.22
40908;BME280;51055;59.436;24.778;2023-10-09T01:39:58;101009.72;;;6.89;75.62
40908;BME280;51055;59.436;24.778;2023-10-09T01:42:27;101005.47;;;6.86;76.21
40908;BME280;51055;59.436;24.778;2023-10-09T01:44:58;101010.81;;;6.85;76.69
40908;BME280;51055;59.436;24.778;2023-10-09T01:47:35;100997.56;;;6.86;77.37
40908;BME280;51055;59.436;24.778;2023-10-09T01:50:06;100998.31;;;6.88;77.96
40908;BME280;51055;59.436;24.778;2023-10-09T01:52:54;100992.19;;;6.88;77.08
40908;BME280;51055;59.436;24.778;2023-10-09T01:55:23;100986.09;;;6.87;76.60
40908;BME280;51055;59.436;24.778;2023-10-09T01:58:11;100985.22;;;6.87;77.06
40908;BME280;51055;59.436;24.778;2023-10-09T02:00:51;100988.63;;;6.89;76.84
40908;BME280;51055;59.436;24.778;2023-10-09T02:03:29;100979.78;;;6.90;77.35
40908;BME280;51055;59.436;24.778;2023-10-09T02:05:58;100979.78;;;6.90;77.47
40908;BME280;51055;59.436;24.778;2023-10-09T02:08:30;100981.63;;;6.88;77.50
40908;BME280;51055;59.436;24.778;2023-10-09T02:11:03;100976.53;;;6.85;77.87
40908;BME280;51055;59.436;24.778;2023-10-09T02:13:31;100977.50;;;6.84;79.13
40908;BME280;51055;59.436;24.778;2023-10-09T02:16:01;100969.66;;;6.82;79.28
40908;BME280;51055;59.436;24.778;2023-10-09T02:18:43;100977.09;;;6.75;80.58
40908;BME280;51055;59.436;24.778;2023-10-09T02:21:21;100971.28;;;6.70;80.80
40908;BME280;51055;59.436;24.778;2023-10-09T02:24:03;100962.75;;;6.65;80.46
40908;BME280;51055;59.436;24.778;2023-10-09T02:26:37;100963.63;;;6.66;80.57
40908;BME280;51055;59.436;24.778;2023-10-09T02:29:27;100961.84;;;6.66;80.00
40908;BME280;51055;59.436;24.778;2023-10-09T02:31:55;100963.34;;;6.70;80.57
40908;BME280;51055;59.436;24.778;2023-10-09T02:34:28;100964.97;;;6.73;80.92
40908;BME280;51055;59.436;24.778;2023-10-09T02:36:57;100952.25;;;6.79;81.68
40908;BME280;51055;59.436;24.778;2023-10-09T02:39:33;100952.16;;;6.81;82.51
40908;BME280;51055;59.436;24.778;2023-10-09T02:42:10;100951.41;;;6.79;82.77
40908;BME280;51055;59.436;24.778;2023-10-09T02:44:41;100952.44;;;6.76;84.40
40908;BME280;51055;59.436;24.778;2023-10-09T02:47:14;100949.81;;;6.76;84.64
40908;BME280;51055;59.436;24.778;2023-10-09T02:50:06;100956.19;;;6.72;85.82
40908;BME280;51055;59.436;24.778;2023-10-09T02:52:36;100952.81;;;6.70;87.18
40908;BME280;51055;59.436;24.778;2023-10-09T02:55:09;100954.50;;;6.71;87.02
40908;BME280;51055;59.436;24.778;2023-10-09T02:57:51;100949.31;;;6.70;87.27
40908;BME280;51055;59.436;24.778;2023-10-09T03:00:39;100947.53;;;6.70;86.70
40908;BME280;51055;59.436;24.778;2023-10-09T03:03:06;100947.63;;;6.69;86.27
40908;BME280;51055;59.436;24.778;2023-10-09T03:05:35;100943.94;;;6.71;86.28
40908;BME280;51055;59.436;24.778;2023-10-09T03:08:10;100947.16;;;6.76;86.77
40908;BME280;51055;59.436;24.778;2023-10-09T03:10:40;100933.88;;;6.78;87.48
40908;BME280;51055;59.436;24.778;2023-10-09T03:13:08;100939.81;;;6.81;88.18
40908;BME280;51055;59.436;24.778;2023-10-09T03:15:35;100932.50;;;6.87;88.48
40908;BME280;51055;59.436;24.778;2023-10-09T03:18:04;100940.22;;;6.90;88.54
40908;BME280;51055;59.436;24.778;2023-10-09T03:20:32;100937.59;;;6.90;89.24
40908;BME280;51055;59.436;24.778;2023-10-09T03:23:00;100935.88;;;6.89;88.64
40908;BME280;51055;59.436;24.778;2023-10-09T03:25:28;100936.53;;;6.92;88.62
40908;BME280;51055;59.436;24.778;2023-10-09T03:27:56;100933.91;;;6.92;88.71
40908;BME280;51055;59.436;24.778;2023-10-09T03:30:26;100941.63;;;6.95;89.76
40908;BME280;51055;59.436;24.778;2023-10-09T03:32:54;100932.78;;;6.96;90.02
40908;BME280;51055;59.436;24.778;2023-10-09T03:35:23;100933.63;;;6.97;90.50
40908;BME280;51055;59.436;24.778;2023-10-09T03:37:58;100931.00;;;6.97;90.97
40908;BME280;51055;59.436;24.778;2023-10-09T03:40:44;100923.09;;;6.97;91.84
40908;BME280;51055;59.436;24.778;2023-10-09T03:43:15;100916.00;;;6.97;92.38
40908;BME280;51055;59.436;24.778;2023-10-09T03:45:44;100919.41;;;6.99;92.15
40908;BME280;51055;59.436;24.778;2023-10-09T03:48:21;100928.16;;;7.00;93.17
40908;BME280;51055;59.436;24.778;2023-10-09T03:50:59;100918.38;;;7.02;93.96
40908;BME280;51055;59.436;24.778;2023-10-09T03:53:37;100916.97;;;6.96;92.21
40908;BME280;51055;59.436;24.778;2023-10-09T03:56:08;100917.81;;;6.97;91.53
40908;BME280;51055;59.436;24.778;2023-10-09T03:58:39;100922.22;;;6.96;90.93
40908;BME280;51055;59.436;24.778;2023-10-09T04:03:44;100924.94;;;6.95;91.78
40908;BME280;51055;59.436;24.778;2023-10-09T04:06:12;100916.19;;;6.94;92.19
40908;BME280;51055;59.436;24.778;2023-10-09T04:08:40;100923.09;;;6.97;92.93
40908;BME280;51055;59.436;24.778;2023-10-09T04:11:14;100925.72;;;6.97;93.42
40908;BME280;51055;59.436;24.778;2023-10-09T04:13:45;100926.84;;;6.93;94.53
40908;BME280;51055;59.436;24.778;2023-10-09T04:16:17;100927.03;;;6.90;93.60
40908;BME280;51055;59.436;24.778;2023-10-09T04:19:01;100919.50;;;6.84;92.76
40908;BME280;51055;59.436;24.778;2023-10-09T04:21:55;100907.31;;;6.81;91.95
40908;BME280;51055;59.436;24.778;2023-10-09T04:24:25;100914.50;;;6.79;91.28
40908;BME280;51055;59.436;24.778;2023-10-09T04:26:53;100916.88;;;6.84;90.92
40908;BME280;51055;59.436;24.778;2023-10-09T04:29:23;100915.81;;;6.86;90.58
40908;BME280;51055;59.436;24.778;2023-10-09T04:31:56;100921.75;;;6.90;90.99
40908;BME280;51055;59.436;24.778;2023-10-09T04:34:27;100919.13;;;6.90;91.74
40908;BME280;51055;59.436;24.778;2023-10-09T04:36:56;100918.28;;;6.89;92.21
40908;BME280;51055;59.436;24.778;2023-10-09T04:39:50;100918.16;;;6.91;92.30
40908;BME280;51055;59.436;24.778;2023-10-09T04:42:28;100913.75;;;6.91;92.38
40908;BME280;51055;59.436;24.778;2023-10-09T04:45:06;100923.63;;;6.88;91.40
40908;BME280;51055;59.436;24.778;2023-10-09T04:47:36;100923.63;;;6.88;91.13
40908;BME280;51055;59.436;24.778;2023-10-09T04:50:08;100924.41;;;6.90;91.04
40908;BME280;51055;59.436;24.778;2023-10-09T04:52:39;100925.06;;;6.93;91.79
40908;BME280;51055;59.436;24.778;2023-10-09T04:55:07;100922.13;;;6.98;92.69
40908;BME280;51055;59.436;24.778;2023-10-09T04:57:47;100926.47;;;6.99;93.65
40908;BME280;51055;59.436;24.778;2023-10-09T05:00:35;100923.16;;;6.95;93.11
40908;BME280;51055;59.436;24.778;2023-10-09T05:03:14;100913.75;;;6.91;93.12
40908;BME280;51055;59.436;24.778;2023-10-09T05:06:02;100928.53;;;6.94;93.81
40908;BME280;51055;59.436;24.778;2023-10-09T05:08:48;100930.22;;;6.95;94.13
40908;BME280;51055;59.436;24.778;2023-10-09T05:11:17;100928.53;;;6.94;93.87
40908;BME280;51055;59.436;24.778;2023-10-09T05:14:16;100922.63;;;6.90;93.47
40908;BME280;51055;59.436;24.778;2023-10-09T05:16:44;100919.00;;;6.91;93.74
40908;BME280;51055;59.436;24.778;2023-10-09T05:19:23;100926.84;;;6.93;94.16
40908;BME280;51055;59.436;24.778;2023-10-09T05:22:01;100918.75;;;6.96;94.48
40908;BME280;51055;59.436;24.778;2023-10-09T05:24:35;100922.03;;;6.99;94.31
40908;BME280;51055;59.436;24.778;2023-10-09T05:27:13;100917.44;;;7.03;94.20
40908;BME280;51055;59.436;24.778;2023-10-09T05:30:07;100918.38;;;7.02;93.74
40908;BME280;51055;59.436;24.778;2023-10-09T05:33:01;100919.97;;;7.04;92.95
40908;BME280;51055;59.436;24.778;2023-10-09T05:35:48;100933.06;;;7.06;93.07
40908;BME280;51055;59.436;24.778;2023-10-09T05:38:35;100933.06;;;7.06;93.13
40908;BME280;51055;59.436;24.778;2023-10-09T05:41:13;100924.19;;;7.07;92.66
40908;BME280;51055;59.436;24.778;2023-10-09T05:44:04;100922.31;;;7.09;92.90
40908;BME280;51055;59.436;24.778;2023-10-09T05:46:51;100918.75;;;7.10;93.14
40908;BME280;51055;59.436;24.778;2023-10-09T05:49:37;100912.31;;;7.14;93.16
40908;BME280;51055;59.436;24.778;2023-10-09T05:52:14;100918.38;;;7.16;92.06
40908;BME280;51055;59.436;24.778;2023-10-09T05:55:11;100919.31;;;7.15;91.90
40908;BME280;51055;59.436;24.778;2023-10-09T05:57:57;100917.41;;;7.17;91.78
40908;BME280;51055;59.436;24.778;2023-10-09T06:00:25;100919.03;;;7.19;92.05
40908;BME280;51055;59.436;24.778;2023-10-09T06:03:12;100914.41;;;7.23;92.82
40908;BME280;51055;59.436;24.778;2023-10-09T06:05:53;100923.91;;;7.25;92.89
40908;BME280;51055;59.436;24.778;2023-10-09T06:08:26;100920.63;;;7.22;92.44
40908;BME280;51055;59.436;24.778;2023-10-09T06:11:09;100917.88;;;7.23;92.31
40908;BME280;51055;59.436;24.778;2023-10-09T06:13:57;100926.81;;;7.21;92.00
40908;BME280;51055;59.436;24.778;2023-10-09T06:16:31;100920.50;;;7.23;92.35
40908;BME280;51055;59.436;24.778;2023-10-09T06:19:14;100915.16;;;7.25;91.29
40908;BME280;51055;59.436;24.778;2023-10-09T06:21:52;100908.75;;;7.29;90.99
40908;BME280;51055;59.436;24.778;2023-10-09T06:24:23;100913.72;;;7.33;91.16
40908;BME280;51055;59.436;24.778;2023-10-09T06:26:51;100910.16;;;7.34;91.09
40908;BME280;51055;59.436;24.778;2023-10-09T06:29:41;100907.88;;;7.43;89.94
40908;BME280;51055;59.436;24.778;2023-10-09T06:32:12;100910.41;;;7.44;90.20
40908;BME280;51055;59.436;24.778;2023-10-09T06:34:50;100915.59;;;7.46;90.48
40908;BME280;51055;59.436;24.778;2023-10-09T06:37:24;100906.84;;;7.45;89.42
40908;BME280;51055;59.436;24.778;2023-10-09T06:39:55;100906.19;;;7.42;89.11
40908;BME280;51055;59.436;24.778;2023-10-09T06:42:27;100911.16;;;7.46;89.57
40908;BME280;51055;59.436;24.778;2023-10-09T06:47:35;100910.22;;;7.47;90.14
40908;BME280;51055;59.436;24.778;2023-10-09T06:53:00;100908.41;;;7.48;88.85
40908;BME280;51055;59.436;24.778;2023-10-09T06:55:37;100910.00;;;7.50;89.35
40908;BME280;51055;59.436;24.778;2023-10-09T06:58:19;100905.50;;;7.52;89.35
40908;BME280;51055;59.436;24.778;2023-10-09T07:00:55;100907.28;;;7.52;89.14
40908;BME280;51055;59.436;24.778;2023-10-09T07:03:29;100903.59;;;7.54;89.64
40908;BME280;51055;59.436;24.778;2023-10-09T07:06:10;100897.59;;;7.52;88.57
40908;BME280;51055;59.436;24.778;2023-10-09T07:08:57;100904.66;;;7.52;88.90
40908;BME280;51055;59.436;24.778;2023-10-09T07:11:47;100905.50;;;7.52;88.93
40908;BME280;51055;59.436;24.778;2023-10-09T07:14:19;100917.00;;;7.51;88.50
40908;BME280;51055;59.436;24.778;2023-10-09T07:17:08;100920.56;;;7.50;88.43
40908;BME280;51055;59.436;24.778;2023-10-09T07:19:49;100920.75;;;7.47;87.97
40908;BME280;51055;59.436;24.778;2023-10-09T07:22:17;100917.19;;;7.48;87.71
40908;BME280;51055;59.436;24.778;2023-10-09T07:24:53;100921.53;;;7.49;87.59
40908;BME280;51055;59.436;24.778;2023-10-09T07:27:31;100920.69;;;7.49;87.85
40908;BME280;51055;59.436;24.778;2023-10-09T07:30:20;100921.34;;;7.52;88.92
40908;BME280;51055;59.436;24.778;2023-10-09T07:35:44;100924.31;;;7.60;89.60
40908;BME280;51055;59.436;24.778;2023-10-09T07:38:20;100927.91;;;7.59;88.54
40908;BME280;51055;59.436;24.778;2023-10-09T07:40:56;100925.38;;;7.58;88.22
40908;BME280;51055;59.436;24.778;2023-10-09T07:43:35;100930.44;;;7.61;88.32
40908;BME280;51055;59.436;24.778;2023-10-09T07:46:07;100926.22;;;7.58;87.12
40908;BME280;51055;59.436;24.778;2023-10-09T07:51:28;100929.78;;;7.57;87.79
40908;BME280;51055;59.436;24.778;2023-10-09T07:53:59;100930.94;;;7.53;87.72
40908;BME280;51055;59.436;24.778;2023-10-09T07:56:37;100924.72;;;7.54;87.61
40908;BME280;51055;59.436;24.778;2023-10-09T07:59:09;100936.00;;;7.56;87.37
40908;BME280;51055;59.436;24.778;2023-10-09T08:01:49;100922.94;;;7.55;88.31
40908;BME280;51055;59.436;24.778;2023-10-09T08:04:23;100928.94;;;7.57;88.41
40908;BME280;51055;59.436;24.778;2023-10-09T08:07:11;100930.00;;;7.54;88.36
40908;BME280;51055;59.436;24.778;2023-10-09T08:10:08;100926.03;;;7.47;85.95
40908;BME280;51055;59.436;24.778;2023-10-09T08:12:45;100923.41;;;7.47;85.99
40908;BME280;51055;59.436;24.778;2023-10-09T08:15:33;100921.34;;;7.52;88.39
40908;BME280;51055;59.436;24.778;2023-10-09T08:18:19;100921.69;;;7.60;91.39
40908;BME280;51055;59.436;24.778;2023-10-09T08:20:56;100921.78;;;7.59;92.07
40908;BME280;51055;59.436;24.778;2023-10-09T08:23:30;100917.53;;;7.56;93.89
40908;BME280;51055;59.436;24.778;2023-10-09T08:26:02;100914.25;;;7.53;93.62
40908;BME280;51055;59.436;24.778;2023-10-09T08:28:44;100924.53;;;7.57;94.38
40908;BME280;51055;59.436;24.778;2023-10-09T08:31:17;100917.25;;;7.61;95.17
40908;BME280;51055;59.436;24.778;2023-10-09T08:34:06;100918.09;;;7.61;93.62
40908;BME280;51055;59.436;24.778;2023-10-09T08:36:40;100925.91;;;7.63;93.41
40908;BME280;51055;59.436;24.778;2023-10-09T08:39:10;100936.59;;;7.61;95.03
40908;BME280;51055;59.436;24.778;2023-10-09T08:41:54;100926.91;;;7.48;92.51
40908;BME280;51055;59.436;24.778;2023-10-09T08:44:32;100926.72;;;7.37;91.97
40908;BME280;51055;59.436;24.778;2023-10-09T08:47:01;100926.81;;;7.35;92.57
40908;BME280;51055;59.436;24.778;2023-10-09T08:49:30;100926.56;;;7.25;95.93
40908;BME280;51055;59.436;24.778;2023-10-09T08:52:01;100923.63;;;7.30;96.59
40908;BME280;51055;59.436;24.778;2023-10-09T08:54:30;100929.28;;;7.38;97.15
40908;BME280;51055;59.436;24.778;2023-10-09T08:57:01;100925.50;;;7.42;96.54
40908;BME280;51055;59.436;24.778;2023-10-09T08:59:29;100928.59;;;7.49;95.49
40908;BME280;51055;59.436;24.778;2023-10-09T09:01:57;100928.50;;;7.50;95.79
40908;BME280;51055;59.436;24.778;2023-10-09T09:04:53;100923.88;;;7.54;95.97
40908;BME280;51055;59.436;24.778;2023-10-09T09:07:28;100916.31;;;7.62;95.44
40908;BME280;51055;59.436;24.778;2023-10-09T09:10:00;100920.06;;;7.72;95.37
40908;BME280;51055;59.436;24.778;2023-10-09T09:12:45;100920.72;;;7.75;94.47
40908;BME280;51055;59.436;24.778;2023-10-09T09:15:14;100921.53;;;7.76;93.60
40908;BME280;51055;59.436;24.778;2023-10-09T09:17:47;100917.97;;;7.77;93.26
40908;BME280;51055;59.436;24.778;2023-10-09T09:20:24;100918.81;;;7.77;92.56
40908;BME280;51055;59.436;24.778;2023-10-09T09:22:57;100913.53;;;7.77;92.71
40908;BME280;51055;59.436;24.778;2023-10-09T09:25:49;100925.34;;;7.72;92.41
40908;BME280;51055;59.436;24.778;2023-10-09T09:28:26;100926.28;;;7.71;92.04
40908;BME280;51055;59.436;24.778;2023-10-09T09:31:08;100924.69;;;7.68;91.14
40908;BME280;51055;59.436;24.778;2023-10-09T09:33:56;100926.75;;;7.63;90.08
40908;BME280;51055;59.436;24.778;2023-10-09T09:36:26;100924.31;;;7.60;90.79
40908;BME280;51055;59.436;24.778;2023-10-09T09:38:57;100924.44;;;7.59;91.42
40908;BME280;51055;59.436;24.778;2023-10-09T09:41:29;100925.56;;;7.55;88.62
40908;BME280;51055;59.436;24.778;2023-10-09T09:44:01;100923.13;;;7.52;85.67
40908;BME280;51055;59.436;24.778;2023-10-09T09:46:33;100918.91;;;7.49;86.28
40908;BME280;51055;59.436;24.778;2023-10-09T09:49:05;100915.56;;;7.60;85.41
40908;BME280;51055;59.436;24.778;2023-10-09T09:51:40;100920.16;;;7.70;86.11
40908;BME280;51055;59.436;24.778;2023-10-09T09:54:10;100914.59;;;7.75;85.90
40908;BME280;51055;59.436;24.778;2023-10-09T09:56:42;100919.75;;;7.76;84.59
40908;BME280;51055;59.436;24.778;2023-10-09T09:59:11;100925.16;;;7.75;84.59
40908;BME280;51055;59.436;24.778;2023-10-09T10:01:49;100930.31;;;7.76;84.18
40908;BME280;51055;59.436;24.778;2023-10-09T10:04:28;100929.19;;;7.80;84.42
40908;BME280;51055;59.436;24.778;2023-10-09T10:06:57;100928.13;;;7.83;85.29
40908;BME280;51055;59.436;24.778;2023-10-09T10:09:35;100923.78;;;7.82;85.23
40908;BME280;51055;59.436;24.778;2023-10-09T10:12:09;100927.47;;;7.79;84.22
40908;BME280;51055;59.436;24.778;2023-10-09T10:20:27;100920.31;;;7.81;82.01
40908;BME280;51055;59.436;24.778;2023-10-09T10:23:18;100919.34;;;7.82;81.17
40908;BME280;51055;59.436;24.778;2023-10-09T10:25:47;100917.56;;;7.83;82.30
40908;BME280;51055;59.436;24.778;2023-10-09T10:28:22;100920.19;;;7.83;82.72
40908;BME280;51055;59.436;24.778;2023-10-09T10:30:56;100922.09;;;7.81;82.33
40908;BME280;51055;59.436;24.778;2023-10-09T10:34:02;100923.78;;;7.82;83.65
40908;BME280;51055;59.436;24.778;2023-10-09T10:36:34;100918.41;;;7.83;83.90
40908;BME280;51055;59.436;24.778;2023-10-09T10:39:08;100918.50;;;7.82;84.99
40908;BME280;51055;59.436;24.778;2023-10-09T10:41:53;100922.19;;;7.79;85.86
40908;BME280;51055;59.436;24.778;2023-10-09T10:44:32;100922.28;;;7.37;84.72
40908;BME280;51055;59.436;24.778;2023-10-09T10:47:11;100927.16;;;7.57;85.71
40908;BME280;51055;59.436;24.778;2023-10-09T10:50:01;100919.22;;;7.71;85.70
40908;BME280;51055;59.436;24.778;2023-10-09T10:53:13;100918.22;;;7.86;86.70
40908;BME280;51055;59.436;24.778;2023-10-09T10:55:58;100922.44;;;7.89;85.42
40908;BME280;51055;59.436;24.778;2023-10-09T10:58:53;100922.44;;;7.89;83.53
40908;BME280;51055;59.436;24.778;2023-10-09T11:01:34;100921.47;;;7.63;82.83
40908;BME280;51055;59.436;24.778;2023-10-09T11:04:22;100928.28;;;7.53;87.61
40908;BME280;51055;59.436;24.778;2023-10-09T11:07:02;100929.66;;;7.32;93.64
40908;BME280;51055;59.436;24.778;2023-10-09T11:09:55;100923.34;;;7.34;94.96
40908;BME280;51055;59.436;24.778;2023-10-09T11:15:34;100923.34;;;7.34;98.51
40908;BME280;51055;59.436;24.778;2023-10-09T11:18:15;100925.69;;;7.39;98.73
40908;BME280;51055;59.436;24.778;2023-10-09T11:20:51;100921.94;;;7.15;100.00
40908;BME280;51055;59.436;24.778;2023-10-09T11:23:32;100929.56;;;7.05;100.00
40908;BME280;51055;59.436;24.778;2023-10-09T11:26:07;100937.75;;;7.01;100.00
40908;BME280;51055;59.436;24.778;2023-10-09T11:31:57;100920.63;;;7.08;100.00
40908;BME280;51055;59.436;24.778;2023-10-09T11:34:26;100930.81;;;7.00;100.00
40908;BME280;51055;59.436;24.778;2023-10-09T11:37:00;100929.28;;;7.24;100.00
40908;BME280;51055;59.436;24.778;2023-10-09T11:39:30;100937.28;;;7.08;100.00
40908;BME280;51055;59.436;24.778;2023-10-09T11:42:06;100930.41;;;6.92;100.00
40908;BME280;51055;59.436;24.778;2023-10-09T11:44:38;100937.56;;;7.04;100.00
40908;BME280;51055;59.436;24.778;2023-10-09T11:47:07;100925.31;;;7.17;100.00
40908;BME280;51055;59.436;24.778;2023-10-09T11:49:55;100946.63;;;7.14;100.00
40908;BME280;51055;59.436;24.778;2023-10-09T11:52:30;100951.34;;;7.23;100.00
40908;BME280;51055;59.436;24.778;2023-10-09T11:55:13;100939.56;;;7.14;100.00
40908;BME280;51055;59.436;24.778;2023-10-09T11:57:43;100945.28;;;7.21;100.00
40908;BME280;51055;59.436;24.778;2023-10-09T12:00:12;100947.09;;;7.34;99.53
40908;BME280;51055;59.436;24.778;2023-10-09T12:02:58;100943.50;;;7.36;95.88
40908;BME280;51055;59.436;24.778;2023-10-09T12:05:33;100942.84;;;7.32;95.42
40908;BME280;51055;59.436;24.778;2023-10-09T12:08:02;100945.00;;;7.40;94.67
40908;BME280;51055;59.436;24.778;2023-10-09T12:10:30;100940.22;;;7.32;96.23
40908;BME280;51055;59.436;24.778;2023-10-09T12:12:58;100942.28;;;7.27;96.38
40908;BME280;51055;59.436;24.778;2023-10-09T12:15:26;100948.31;;;7.15;98.42
40908;BME280;51055;59.436;24.778;2023-10-09T12:18:08;100949.16;;;7.15;100.00
40908;BME280;51055;59.436;24.778;2023-10-09T12:20:46;100944.38;;;7.22;99.80
40908;BME280;51055;59.436;24.778;2023-10-09T12:23:22;100944.84;;;7.28;99.56
40908;BME280;51055;59.436;24.778;2023-10-09T12:25:51;100959.06;;;7.12;96.96
40908;BME280;51055;59.436;24.778;2023-10-09T12:28:24;100964.53;;;7.09;99.23
40908;BME280;51055;59.436;24.778;2023-10-09T12:30:51;100961.41;;;7.02;100.00
40908;BME280;51055;59.436;24.778;2023-10-09T12:33:20;100964.16;;;7.15;100.00
40908;BME280;51055;59.436;24.778;2023-10-09T12:35:56;100958.94;;;7.13;100.00
40908;BME280;51055;59.436;24.778;2023-10-09T12:38:28;100963.19;;;7.02;100.00
40908;BME280;51055;59.436;24.778;2023-10-09T12:41:06;100961.91;;;7.23;100.00
40908;BME280;51055;59.436;24.778;2023-10-09T12:43:53;100964.78;;;7.04;100.00
40908;BME280;51055;59.436;24.778;2023-10-09T12:46:21;100968.50;;;7.16;100.00
40908;BME280;51055;59.436;24.778;2023-10-09T12:48:53;100964.34;;;7.26;100.00
40908;BME280;51055;59.436;24.778;2023-10-09T12:51:25;100953.69;;;7.27;100.00
40908;BME280;51055;59.436;24.778;2023-10-09T12:53:58;100956.03;;;7.32;98.48
40908;BME280;51055;59.436;24.778;2023-10-09T12:56:26;100958.38;;;7.37;96.15
40908;BME280;51055;59.436;24.778;2023-10-09T12:59:00;100949.25;;;7.42;94.17
40908;BME280;51055;59.436;24.778;2023-10-09T13:01:29;100955.66;;;7.38;88.57
40908;BME280;51055;59.436;24.778;2023-10-09T13:03:59;100961.13;;;7.35;87.74
40908;BME280;51055;59.436;24.778;2023-10-09T13:06:27;100959.44;;;7.34;85.95
40908;BME280;51055;59.436;24.778;2023-10-09T13:08:55;100959.22;;;7.37;85.34
40908;BME280;51055;59.436;24.778;2023-10-09T13:11:27;100956.31;;;7.42;84.07
40908;BME280;51055;59.436;24.778;2023-10-09T13:13:55;100961.41;;;7.45;82.90
40908;BME280;51055;59.436;24.778;2023-10-09T13:16:23;100969.38;;;7.57;83.89
40908;BME280;51055;59.436;24.778;2023-10-09T13:18:58;100970.03;;;7.61;83.60
40908;BME280;51055;59.436;24.778;2023-10-09T13:21:37;100973.34;;;7.64;82.60
40908;BME280;51055;59.436;24.778;2023-10-09T13:24:07;100974.47;;;7.60;81.29
40908;BME280;51055;59.436;24.778;2023-10-09T13:26:44;100963.91;;;7.60;79.58
40908;BME280;51055;59.436;24.778;2023-10-09T13:29:19;100973.34;;;7.64;79.81
40908;BME280;51055;59.436;24.778;2023-10-09T13:31:51;100974.34;;;7.76;78.99
40908;BME280;51055;59.436;24.778;2023-10-09T13:34:30;100985.28;;;7.84;79.11
40908;BME280;51055;59.436;24.778;2023-10-09T13:37:00;100980.53;;;7.89;77.41
40908;BME280;51055;59.436;24.778;2023-10-09T13:39:40;100978.56;;;7.93;77.76
40908;BME280;51055;59.436;24.778;2023-10-09T13:42:19;100986.69;;;7.90;77.91
40908;BME280;51055;59.436;24.778;2023-10-09T13:44:52;100989.63;;;7.85;76.76
40908;BME280;51055;59.436;24.778;2023-10-09T13:47:23;100988.59;;;7.73;76.42
40908;BME280;51055;59.436;24.778;2023-10-09T13:49:57;100998.91;;;7.64;75.83
40908;BME280;51055;59.436;24.778;2023-10-09T13:52:25;100992.94;;;7.60;74.13
40908;BME280;51055;59.436;24.778;2023-10-09T13:54:54;100997.97;;;7.65;74.73
40908;BME280;51055;59.436;24.778;2023-10-09T13:57:24;101003.44;;;7.62;73.91
40908;BME280;51055;59.436;24.778;2023-10-09T13:59:58;100999.75;;;7.64;74.42